Time;durP1;ratioP1;P1;durP2;ratioP2;P2;SDS_P1;SDS_P2;PMS_P1;PMS_P2;Temp;Humidity;BMP_temperature;BMP_pressure;BME280_temperature;BME280_humidity;BME280_pressure;Samples;Min_cycle;Max_cycle;Signal;HPM_P1;HPM_P2
2023/01/28 00:01:42;;;;;;;10.20;3.60;;;;;;;-1.14;74.86;100920.67;109629;1252;61117;-68
2023/01/28 00:04:30;;;;;;;8.90;3.40;;;;;;;-1.18;75.07;100919.68;109611;1252;72925;-69
2023/01/28 00:07:18;;;;;;;9.50;3.10;;;;;;;-1.20;75.21;100914.13;109593;1253;67851;-68
2023/01/28 00:10:06;;;;;;;9.50;3.10;;;;;;;-1.21;75.28;100922.52;109638;1253;72798;-68
2023/01/28 00:12:54;;;;;;;9.90;4.00;;;;;;;-1.23;75.13;100922.20;109626;1253;57393;-69
2023/01/28 00:15:42;;;;;;;8.80;3.30;;;;;;;-1.27;75.26;100921.21;109611;1251;57844;-68
2023/01/28 00:18:31;;;;;;;8.60;3.20;;;;;;;-1.29;75.36;100919.48;109610;1252;71799;-67
2023/01/28 00:21:19;;;;;;;11.60;4.40;;;;;;;-1.31;75.47;100918.48;109638;1253;65744;-70
2023/01/28 00:24:08;;;;;;;11.20;3.80;;;;;;;-1.32;75.67;100921.46;108839;1251;1002061;-68
2023/01/28 00:26:56;;;;;;;13.30;4.80;;;;;;;-1.35;75.58;100917.50;109594;1253;59616;-68
2023/01/28 00:29:44;;;;;;;11.00;4.40;;;;;;;-1.31;75.65;100920.41;109599;1251;58741;-68
2023/01/28 00:32:33;;;;;;;12.20;4.60;;;;;;;-1.29;75.15;100918.46;109603;1251;72784;-70
2023/01/28 00:35:21;;;;;;;11.10;4.20;;;;;;;-1.29;74.78;100923.85;109600;1251;68887;-69
2023/01/28 00:38:09;;;;;;;9.50;4.00;;;;;;;-1.31;74.62;100922.48;108808;1251;1002826;-68
2023/01/28 00:41:28;;;;;;;9.90;3.70;;;;;;;-1.32;74.97;100917.30;109464;1258;57897;-68
2023/01/28 00:44:18;;;;;;;10.50;3.80;;;;;;;-1.31;75.20;100916.05;109006;1258;58906;-69
2023/01/28 00:47:07;;;;;;;11.00;3.30;;;;;;;-1.29;74.97;100916.72;108234;1258;1002817;-68
2023/01/28 00:49:55;;;;;;;8.90;3.80;;;;;;;-1.33;74.76;100915.39;109016;1259;67896;-68
2023/01/28 00:52:43;;;;;;;11.10;4.40;;;;;;;-1.37;74.93;100915.09;109027;1258;72608;-68
2023/01/28 00:55:31;;;;;;;9.30;3.50;;;;;;;-1.36;75.04;100910.55;109022;1258;59539;-68
2023/01/28 00:58:20;;;;;;;9.70;3.80;;;;;;;-1.33;75.05;100915.04;108302;1258;1002929;-68
2023/01/28 01:01:20;;;;;;;8.90;3.60;;;;;;;-1.29;75.16;100909.05;108931;1259;72754;-68
2023/01/28 01:04:08;;;;;;;8.80;3.30;;;;;;;-1.25;74.81;100912.30;108930;1259;67699;-67
2023/01/28 01:06:56;;;;;;;9.40;3.40;;;;;;;-1.22;74.94;100909.64;109035;1258;71148;-67
2023/01/28 01:09:45;;;;;;;8.60;3.60;;;;;;;-1.22;74.34;100903.73;108991;1259;57492;-67
2023/01/28 01:12:33;;;;;;;8.80;3.60;;;;;;;-1.26;74.43;100908.66;109074;1258;61317;-68
2023/01/28 01:15:21;;;;;;;12.80;3.80;;;;;;;-1.28;74.62;100909.04;109042;1258;71188;-68
2023/01/28 01:18:10;;;;;;;10.10;3.50;;;;;;;-1.29;74.92;100910.45;109069;1259;68663;-68
2023/01/28 01:20:58;;;;;;;10.40;4.00;;;;;;;-1.28;75.05;100911.65;109353;1252;73517;-68
2023/01/28 01:23:47;;;;;;;11.00;3.70;;;;;;;-1.30;75.30;100908.73;108848;1251;1002798;-67
2023/01/28 01:26:34;;;;;;;10.70;3.90;;;;;;;-1.32;75.20;100908.92;109592;1253;60195;-68
2023/01/28 01:29:22;;;;;;;12.20;4.20;;;;;;;-1.33;75.41;100909.46;109584;1251;73084;-66
2023/01/28 01:32:10;;;;;;;13.20;4.50;;;;;;;-1.32;75.57;100913.64;108843;1252;1002407;-66
2023/01/28 01:34:58;;;;;;;10.70;3.40;;;;;;;-1.30;75.58;100908.90;109542;1252;72516;-68
2023/01/28 01:37:46;;;;;;;10.20;3.70;;;;;;;-1.30;75.37;100907.67;109619;1252;57694;-67
2023/01/28 01:40:34;;;;;;;10.90;3.80;;;;;;;-1.33;75.21;100905.46;109558;1252;60097;-68
2023/01/28 01:43:22;;;;;;;8.50;3.30;;;;;;;-1.38;75.15;100909.18;109627;1252;72771;-67
2023/01/28 01:46:11;;;;;;;10.20;3.80;;;;;;;-1.43;75.18;100913.25;109623;1252;68023;-68
2023/01/28 01:49:20;;;;;;;10.30;4.00;;;;;;;-1.42;75.49;100916.20;108846;1252;1002785;-69
2023/01/28 01:52:14;;;;;;;9.10;3.30;;;;;;;-1.39;75.07;100920.52;109490;1253;58728;-68
2023/01/28 01:55:11;;;;;;;9.20;3.60;;;;;;;-1.38;75.09;100914.40;109525;1251;57936;-69
2023/01/28 01:58:07;;;;;;;8.40;3.20;;;;;;;-1.36;74.91;100908.64;108709;1252;1002409;-67
2023/01/28 02:00:56;;;;;;;9.10;3.50;;;;;;;-1.39;74.90;100906.93;109435;1251;68198;-69
2023/01/28 02:03:51;;;;;;;8.80;3.30;;;;;;;-1.45;74.86;100897.62;108833;1252;1002469;-67
2023/01/28 02:06:40;;;;;;;8.40;3.20;;;;;;;-1.42;75.00;100902.45;109577;1253;57442;-68
2023/01/28 02:09:34;;;;;;;8.70;3.10;;;;;;;-1.40;75.13;100901.73;109467;1253;57702;-68
2023/01/28 02:12:30;;;;;;;9.60;3.70;;;;;;;-1.38;75.15;100905.88;109620;1253;72710;-67
2023/01/28 02:15:24;;;;;;;7.90;2.60;;;;;;;-1.37;74.86;100907.95;109512;1252;66611;-67
2023/01/28 02:18:12;;;;;;;10.60;4.10;;;;;;;-1.40;75.11;100901.90;109502;1253;71073;-67
2023/01/28 02:21:15;;;;;;;9.50;3.70;;;;;;;-1.35;75.54;100905.14;109588;1253;58616;-68
2023/01/28 02:24:45;;;;;;;9.20;3.80;;;;;;;-1.30;75.41;100906.45;109585;1252;60218;-68
2023/01/28 02:27:36;;;;;;;8.80;3.20;;;;;;;-1.26;75.45;100901.16;109505;1253;73145;-68
2023/01/28 02:30:40;;;;;;;9.00;3.50;;;;;;;-1.20;75.47;100902.13;109621;1253;68097;-70
2023/01/28 02:33:38;;;;;;;11.20;3.70;;;;;;;-1.15;75.39;100898.90;109474;1252;72599;-68
2023/01/28 02:36:27;;;;;;;9.30;3.50;;;;;;;-1.10;75.46;100900.58;109608;1253;57303;-69
2023/01/28 02:39:32;;;;;;;10.30;3.70;;;;;;;-1.07;75.50;100897.89;108736;1252;1003099;-69
2023/01/28 02:42:26;;;;;;;11.20;3.60;;;;;;;-1.04;75.38;100895.58;109611;1253;70703;-68
2023/01/28 02:45:17;;;;;;;10.90;3.60;;;;;;;-1.02;75.51;100898.00;109488;1253;68095;-69
2023/01/28 02:48:04;;;;;;;9.00;3.50;;;;;;;-1.01;75.53;100892.93;109459;1253;71154;-69
2023/01/28 02:51:51;;;;;;;10.50;3.60;;;;;;;-1.04;75.15;100894.02;108798;1253;1002751;-68
2023/01/28 02:55:14;;;;;;;11.80;3.90;;;;;;;-1.10;75.36;100891.16;108803;1253;1002388;-68
2023/01/28 02:58:27;;;;;;;10.20;4.00;;;;;;;-1.16;75.54;100887.09;108694;1253;1002443;-68
2023/01/28 03:01:47;;;;;;;11.00;4.60;;;;;;;-1.11;75.93;100896.75;109630;1253;68582;-69
2023/01/28 03:04:59;;;;;;;18.00;7.00;;;;;;;-1.06;76.18;100893.19;109569;1253;72773;-69
2023/01/28 03:07:49;;;;;;;9.90;4.30;;;;;;;-1.05;75.95;100890.73;109596;1253;57290;-68
2023/01/28 03:10:37;;;;;;;12.60;4.30;;;;;;;-1.07;75.95;100887.64;109613;1252;60292;-69
2023/01/28 03:38:42;;;;;;;10.10;4.00;;;;;;;-0.97;76.39;100878.42;109365;1256;58737;-69
2023/01/28 03:41:32;;;;;;;10.80;4.20;;;;;;;-0.93;76.44;100868.92;109400;1253;59074;-69
2023/01/28 03:47:31;;;;;;;13.40;5.30;;;;;;;-0.80;76.89;100875.15;109623;1253;67781;-71
2023/01/28 03:50:20;;;;;;;13.00;5.50;;;;;;;-0.75;76.68;100874.71;109574;1253;72925;-68
2023/01/28 03:53:16;;;;;;;14.10;5.90;;;;;;;-0.72;76.51;100875.53;108836;1252;1002887;-69
2023/01/28 03:56:17;;;;;;;14.30;5.20;;;;;;;-0.72;76.46;100874.48;109609;1254;60096;-69
2023/01/28 03:59:06;;;;;;;11.60;4.40;;;;;;;-0.71;76.62;100875.35;109640;1252;71502;-67
2023/01/28 04:01:54;;;;;;;11.50;4.20;;;;;;;-0.71;76.57;100880.23;109457;1252;68638;-67
2023/01/28 04:04:43;;;;;;;9.70;4.00;;;;;;;-0.71;76.59;100876.55;109569;1253;73645;-66
2023/01/28 04:07:32;;;;;;;9.80;3.50;;;;;;;-0.72;76.47;100875.70;109592;1252;57314;-66
2023/01/28 04:10:33;;;;;;;11.30;4.70;;;;;;;-0.73;76.80;100874.51;109565;1252;61440;-67
2023/01/28 04:13:28;;;;;;;10.60;4.10;;;;;;;-0.72;77.05;100874.30;109600;1252;71972;-68
2023/01/28 04:16:17;;;;;;;12.10;5.10;;;;;;;-0.69;77.12;100877.73;109614;1256;68897;-67
2023/01/28 04:19:06;;;;;;;13.70;5.00;;;;;;;-0.66;76.98;100879.61;109291;1254;72781;-67
2023/01/28 04:21:55;;;;;;;9.60;4.40;;;;;;;-0.62;76.90;100882.31;109565;1253;57406;-67
2023/01/28 04:24:44;;;;;;;11.00;4.60;;;;;;;-0.60;76.58;100883.86;109559;1252;60132;-67
2023/01/28 04:27:32;;;;;;;11.10;4.50;;;;;;;-0.59;76.62;100881.39;109590;1253;74217;-68
2023/01/28 04:30:30;;;;;;;9.60;4.20;;;;;;;-0.63;76.12;100879.56;109581;1252;66589;-68
2023/01/28 04:33:27;;;;;;;10.60;4.20;;;;;;;-0.67;76.27;100881.02;109567;1256;72657;-67
2023/01/28 04:36:20;;;;;;;10.70;4.40;;;;;;;-0.70;76.69;100880.89;109534;1253;57331;-67
2023/01/28 04:39:41;;;;;;;8.90;3.60;;;;;;;-0.72;76.83;100878.16;109544;1253;58747;-67
2023/01/28 04:42:36;;;;;;;10.10;4.00;;;;;;;-0.77;76.88;100873.17;109628;1254;72827;-68
2023/01/28 04:45:47;;;;;;;11.20;4.20;;;;;;;-0.83;76.67;100868.92;109564;1252;66579;-70
2023/01/28 04:49:13;;;;;;;10.10;4.40;;;;;;;-0.83;77.02;100866.50;109272;1253;72601;-67
2023/01/28 04:52:01;;;;;;;10.20;4.50;;;;;;;-0.82;76.89;100871.70;109559;1252;57538;-68
2023/01/28 04:55:03;;;;;;;11.60;4.70;;;;;;;-0.77;76.94;100873.00;109562;1254;60060;-68
2023/01/28 04:57:51;;;;;;;9.70;4.20;;;;;;;-0.72;76.77;100871.52;109551;1253;71921;-67
2023/01/28 05:00:39;;;;;;;9.80;4.40;;;;;;;-0.70;76.93;100868.87;109579;1253;69174;-68
2023/01/28 05:03:29;;;;;;;10.40;4.30;;;;;;;-0.68;76.99;100866.05;109584;1254;72334;-69
2023/01/28 05:06:17;;;;;;;10.90;4.30;;;;;;;-0.65;76.96;100868.10;109533;1251;58372;-68
2023/01/28 05:09:07;;;;;;;11.50;5.40;;;;;;;-0.63;76.58;100876.08;109578;1254;61013;-68
2023/01/28 05:11:55;;;;;;;11.80;5.90;;;;;;;-0.61;76.33;100875.52;109421;1253;71976;-70
2023/01/28 05:14:43;;;;;;;10.70;4.70;;;;;;;-0.61;75.97;100876.55;109547;1253;67693;-70
2023/01/28 05:17:36;;;;;;;11.20;4.80;;;;;;;-0.62;75.90;100875.87;109527;1253;70424;-71
2023/01/28 05:20:25;;;;;;;10.70;4.50;;;;;;;-0.63;74.70;100876.41;109538;1252;57358;-70
2023/01/28 05:23:16;;;;;;;12.80;4.70;;;;;;;-0.62;74.61;100879.35;109529;1252;59912;-71
2023/01/28 05:26:14;;;;;;;10.80;3.90;;;;;;;-0.62;74.50;100879.70;109517;1253;72978;-70
2023/01/28 05:29:03;;;;;;;11.90;4.50;;;;;;;-0.62;74.56;100882.32;109552;1254;66432;-68
2023/01/28 05:31:51;;;;;;;12.60;4.90;;;;;;;-0.60;74.30;100881.24;109407;1253;73738;-71
2023/01/28 05:34:40;;;;;;;11.30;4.50;;;;;;;-0.55;74.47;100884.98;108780;1254;1002461;-70
2023/01/28 05:37:31;;;;;;;9.60;3.20;;;;;;;-0.52;74.15;100882.31;109566;1253;58822;-71
2023/01/28 05:40:19;;;;;;;10.30;3.70;;;;;;;-0.51;73.71;100880.75;109587;1252;71467;-71
2023/01/28 05:43:07;;;;;;;7.50;3.40;;;;;;;-0.47;74.04;100882.41;109477;1252;67656;-68
2023/01/28 05:45:59;;;;;;;8.60;3.30;;;;;;;-0.44;73.99;100881.48;109513;1253;72101;-70
2023/01/28 05:48:52;;;;;;;10.70;3.80;;;;;;;-0.45;73.47;100883.05;109442;1254;57887;-69
2023/01/28 05:52:07;;;;;;;9.50;3.00;;;;;;;-0.44;73.36;100883.40;109495;1253;59204;-70
2023/01/28 05:54:55;;;;;;;8.80;3.10;;;;;;;-0.44;73.15;100883.91;109594;1252;72832;-69
2023/01/28 05:57:45;;;;;;;10.20;3.30;;;;;;;-0.44;72.73;100880.61;109407;1253;67913;-69
2023/01/28 06:00:34;;;;;;;9.00;3.20;;;;;;;-0.44;73.03;100871.03;109517;1252;73758;-69
2023/01/28 06:03:22;;;;;;;8.10;3.00;;;;;;;-0.46;71.63;100872.79;109514;1253;58116;-70
2023/01/28 06:06:11;;;;;;;7.90;2.60;;;;;;;-0.47;72.04;100877.70;108804;1254;1002214;-71
2023/01/28 06:08:59;;;;;;;11.00;3.50;;;;;;;-0.49;72.01;100881.40;109581;1254;72778;-69
2023/01/28 06:11:49;;;;;;;14.50;4.40;;;;;;;-0.50;72.18;100880.00;108767;1254;1015358;-70
2023/01/28 06:14:38;;;;;;;6.70;2.30;;;;;;;-0.54;70.30;100872.05;109512;1252;71131;-69
2023/01/28 06:17:34;;;;;;;7.60;2.10;;;;;;;-0.59;69.12;100863.63;109525;1252;57589;-72
2023/01/28 06:20:28;;;;;;;6.20;2.10;;;;;;;-0.57;69.54;100866.37;108735;1252;1015313;-72
2023/01/28 06:23:17;;;;;;;7.50;2.70;;;;;;;-0.54;69.78;100870.66;109418;1254;73023;-68
2023/01/28 06:26:05;;;;;;;10.70;4.00;;;;;;;-0.49;70.17;100868.14;109544;1254;67620;-71
2023/01/28 06:28:55;;;;;;;13.70;5.30;;;;;;;-0.46;70.42;100870.86;109502;1253;72394;-70
2023/01/28 06:31:43;;;;;;;16.90;5.40;;;;;;;-0.43;70.86;100873.08;109493;1251;57306;-72
2023/01/28 06:34:32;;;;;;;13.50;4.20;;;;;;;-0.41;70.94;100874.25;108732;1252;1002080;-69
2023/01/28 06:37:20;;;;;;;10.00;4.00;;;;;;;-0.40;71.07;100875.81;109545;1253;72237;-69
2023/01/28 06:40:09;;;;;;;8.30;3.40;;;;;;;-0.40;71.35;100878.59;109543;1253;66643;-71
2023/01/28 06:42:57;;;;;;;8.30;3.10;;;;;;;-0.39;71.26;100883.46;109535;1253;71354;-68
2023/01/28 06:45:45;;;;;;;8.00;2.90;;;;;;;-0.40;71.58;100886.80;109506;1251;58050;-69
2023/01/28 06:48:33;;;;;;;9.50;3.40;;;;;;;-0.41;71.68;100886.11;109567;1251;60271;-69
2023/01/28 06:51:22;;;;;;;7.50;3.20;;;;;;;-0.43;71.71;100887.73;109484;1254;73398;-70
2023/01/28 06:54:10;;;;;;;7.00;2.90;;;;;;;-0.43;71.65;100891.20;109532;1254;68033;-70
2023/01/28 06:56:58;;;;;;;8.10;3.60;;;;;;;-0.45;71.44;100877.63;109551;1254;72317;-68
2023/01/28 06:59:46;;;;;;;7.70;3.10;;;;;;;-0.39;71.38;100888.52;109541;1252;58050;-70
2023/01/28 07:02:34;;;;;;;9.70;3.00;;;;;;;-0.37;70.81;100887.96;109574;1252;58840;-71
2023/01/28 07:05:23;;;;;;;10.00;3.20;;;;;;;-0.36;70.88;100887.41;109526;1252;73603;-73
2023/01/28 07:08:10;;;;;;;8.20;2.90;;;;;;;-0.32;71.00;100890.15;109564;1251;67072;-72
2023/01/28 07:10:59;;;;;;;7.80;3.00;;;;;;;-0.31;71.00;100892.73;109550;1252;71947;-68
2023/01/28 07:13:47;;;;;;;7.70;2.90;;;;;;;-0.30;71.22;100890.98;108765;1252;1002329;-73
2023/01/28 07:16:35;;;;;;;10.00;3.30;;;;;;;-0.30;70.95;100885.20;109497;1254;61308;-72
2023/01/28 07:19:23;;;;;;;8.30;2.90;;;;;;;-0.30;70.70;100884.52;109590;1254;72538;-69
2023/01/28 07:22:11;;;;;;;7.40;2.80;;;;;;;-0.29;70.49;100891.12;109511;1253;67890;-69
2023/01/28 07:25:00;;;;;;;10.00;2.90;;;;;;;-0.30;69.28;100888.02;109483;1253;71115;-70
2023/01/28 07:27:51;;;;;;;11.30;2.60;;;;;;;-0.36;68.83;100886.89;108805;1253;1002826;-70
2023/01/28 07:30:39;;;;;;;7.70;2.70;;;;;;;-0.39;69.58;100894.27;109325;1254;59927;-70
2023/01/28 07:33:27;;;;;;;7.80;2.40;;;;;;;-0.37;69.74;100899.45;109547;1253;72569;-70
2023/01/28 07:36:15;;;;;;;9.00;2.60;;;;;;;-0.37;69.04;100901.55;109564;1252;67578;-70
2023/01/28 07:39:04;;;;;;;6.80;2.50;;;;;;;-0.40;68.88;100895.85;109525;1253;72385;-70
2023/01/28 07:41:52;;;;;;;8.10;3.00;;;;;;;-0.39;68.25;100901.08;109498;1252;59638;-70
2023/01/28 07:45:03;;;;;;;7.50;2.20;;;;;;;-0.42;68.14;100903.58;109583;1253;58890;-71
2023/01/28 07:47:57;;;;;;;7.30;2.50;;;;;;;-0.44;67.82;100903.08;109608;1252;73810;-71
2023/01/28 07:50:47;;;;;;;6.30;2.10;;;;;;;-0.44;68.04;100900.13;109555;1253;66519;-70
2023/01/28 07:53:35;;;;;;;7.00;2.40;;;;;;;-0.47;67.82;100897.05;109422;1254;73949;-69
2023/01/28 07:56:23;;;;;;;7.10;2.10;;;;;;;-0.51;67.65;100899.21;109487;1253;58841;-69
2023/01/28 07:59:11;;;;;;;6.80;2.40;;;;;;;-0.55;67.53;100894.73;109539;1252;60279;-71
2023/01/28 08:02:00;;;;;;;7.00;2.20;;;;;;;-0.53;67.65;100891.05;108739;1252;1002775;-70
2023/01/28 08:04:48;;;;;;;6.90;2.10;;;;;;;-0.49;67.59;100886.80;109535;1252;67848;-71
2023/01/28 08:07:36;;;;;;;7.60;2.20;;;;;;;-0.43;67.97;100887.05;108677;1253;1002208;-69
2023/01/28 08:10:24;;;;;;;7.30;2.30;;;;;;;-0.37;67.82;100883.08;109483;1252;58317;-69
2023/01/28 08:13:14;;;;;;;7.10;2.20;;;;;;;-0.32;67.64;100873.91;108819;1253;1002734;-70
2023/01/28 08:16:03;;;;;;;7.00;2.20;;;;;;;-0.30;67.21;100870.39;108722;1252;1002585;-70
2023/01/28 08:18:51;;;;;;;6.70;2.10;;;;;;;-0.34;66.98;100874.29;109505;1252;69135;-70
2023/01/28 08:21:39;;;;;;;7.80;2.20;;;;;;;-0.40;67.00;100873.88;109405;1252;72794;-69
2023/01/28 08:24:28;;;;;;;6.60;2.00;;;;;;;-0.39;67.43;100878.58;109496;1252;58151;-71
2023/01/28 08:27:16;;;;;;;6.40;2.20;;;;;;;-0.34;67.79;100878.66;109547;1252;58734;-69
2023/01/28 08:30:05;;;;;;;7.10;2.30;;;;;;;-0.27;67.76;100883.74;108773;1252;1002252;-69
2023/01/28 08:32:59;;;;;;;6.70;2.60;;;;;;;-0.21;67.23;100883.98;109341;1253;66430;-68
2023/01/28 08:35:47;;;;;;;6.90;2.60;;;;;;;-0.21;67.15;100883.80;108605;1253;1002548;-69
2023/01/28 08:38:35;;;;;;;7.60;2.30;;;;;;;-0.27;67.18;100877.31;109393;1253;58132;-70
2023/01/28 08:41:24;;;;;;;8.90;3.10;;;;;;;-0.18;67.62;100889.68;108647;1252;1002485;-68
2023/01/28 08:44:12;;;;;;;11.40;3.80;;;;;;;-0.11;67.70;100886.23;109505;1252;74835;-69
2023/01/28 08:47:01;;;;;;;9.70;3.50;;;;;;;-0.03;67.49;100886.41;109418;1254;68250;-71
2023/01/28 08:49:50;;;;;;;9.50;3.10;;;;;;;0.07;67.15;100890.56;109202;1252;72722;-69
2023/01/28 08:52:37;;;;;;;8.80;3.40;;;;;;;0.11;66.36;100893.61;109367;1253;58539;-72
2023/01/28 08:55:27;;;;;;;9.20;3.60;;;;;;;0.16;66.66;100894.04;108788;1252;1002312;-71
2023/01/28 08:58:17;;;;;;;9.40;3.60;;;;;;;0.23;67.02;100897.19;109555;1251;73854;-70
2023/01/28 09:01:05;;;;;;;8.80;3.30;;;;;;;0.25;66.24;100897.52;109588;1252;67729;-70
2023/01/28 09:03:53;;;;;;;11.20;4.00;;;;;;;0.23;65.60;100895.29;109403;1253;72410;-71
2023/01/28 09:06:41;;;;;;;11.40;4.70;;;;;;;0.17;66.55;100892.80;109545;1252;58160;-73
2023/01/28 09:09:30;;;;;;;14.30;6.20;;;;;;;0.21;66.74;100900.75;108668;1251;1002894;-70
2023/01/28 09:12:17;;;;;;;13.00;5.60;;;;;;;0.22;67.07;100899.50;109560;1252;75009;-70
2023/01/28 09:15:06;;;;;;;15.90;6.10;;;;;;;0.25;67.73;100901.01;109556;1252;66326;-71
2023/01/28 09:17:58;;;;;;;15.30;6.20;;;;;;;0.30;67.45;100905.43;109512;1252;72494;-70
2023/01/28 09:20:46;;;;;;;15.40;6.50;;;;;;;0.32;67.54;100896.51;109547;1252;58136;-72
2023/01/28 09:23:36;;;;;;;15.70;6.00;;;;;;;0.33;66.38;100896.83;109393;1255;61216;-69
2023/01/28 09:26:25;;;;;;;15.30;6.00;;;;;;;0.34;66.07;100910.23;108787;1252;1002906;-70
2023/01/28 09:29:13;;;;;;;14.00;5.60;;;;;;;0.27;66.51;100901.48;109545;1252;68621;-70
2023/01/28 09:32:01;;;;;;;13.00;4.90;;;;;;;0.30;66.10;100907.52;109544;1252;73392;-69
2023/01/28 09:34:50;;;;;;;13.20;4.70;;;;;;;0.25;65.52;100906.59;109499;1252;58112;-70
2023/01/28 09:37:38;;;;;;;13.10;4.80;;;;;;;0.21;66.19;100906.84;109506;1251;61468;-72
2023/01/28 09:40:43;;;;;;;14.30;5.00;;;;;;;0.27;66.48;100908.63;108770;1253;1002765;-70
2023/01/28 09:43:53;;;;;;;10.30;3.50;;;;;;;0.31;65.85;100909.27;109558;1251;68899;-71
2023/01/28 09:46:44;;;;;;;8.90;4.00;;;;;;;0.29;66.15;100905.98;109455;1251;72706;-68
2023/01/28 09:49:44;;;;;;;11.50;3.90;;;;;;;0.32;66.70;100905.03;109528;1252;58113;-70
2023/01/28 09:52:38;;;;;;;11.50;3.80;;;;;;;0.37;66.32;100901.09;109542;1251;59036;-68
2023/01/28 09:55:35;;;;;;;10.10;3.70;;;;;;;0.38;66.52;100902.48;109571;1251;74846;-69
2023/01/28 09:58:23;;;;;;;8.70;3.40;;;;;;;0.41;66.74;100898.91;109546;1252;69345;-70
2023/01/28 10:01:46;;;;;;;9.80;4.20;;;;;;;0.44;66.16;100896.22;108733;1251;1002973;-70
2023/01/28 10:04:43;;;;;;;13.40;4.30;;;;;;;0.45;66.09;100898.66;109593;1252;58164;-70
2023/01/28 10:07:52;;;;;;;12.00;4.90;;;;;;;0.41;65.67;100892.63;109564;1252;61267;-71
2023/01/28 10:10:51;;;;;;;13.90;6.40;;;;;;;0.40;65.73;100891.78;109430;1252;72826;-69
2023/01/28 10:13:58;;;;;;;15.40;6.70;;;;;;;0.36;65.82;100891.70;109508;1252;67977;-72
2023/01/28 10:16:59;;;;;;;14.20;5.40;;;;;;;0.45;67.27;100891.14;108712;1252;1015382;-71
2023/01/28 10:19:55;;;;;;;15.40;5.90;;;;;;;0.52;66.28;100881.38;109545;1252;58159;-70
2023/01/28 10:22:51;;;;;;;14.10;6.40;;;;;;;0.48;65.33;100877.78;109527;1253;58926;-72
2023/01/28 10:25:43;;;;;;;14.90;6.40;;;;;;;0.49;65.84;100882.31;109368;1253;73863;-70
2023/01/28 10:28:35;;;;;;;16.90;7.10;;;;;;;0.55;65.70;100876.77;109590;1251;68094;-69
2023/01/28 10:31:31;;;;;;;18.50;8.60;;;;;;;0.58;65.68;100869.90;109514;1252;72334;-69
2023/01/28 10:34:21;;;;;;;20.80;8.40;;;;;;;0.61;65.42;100867.73;109463;1252;58100;-72
2023/01/28 10:37:13;;;;;;;17.40;7.00;;;;;;;0.62;65.32;100860.54;108769;1251;1002121;-70
2023/01/28 10:40:02;;;;;;;17.50;7.60;;;;;;;0.60;65.23;100862.67;109454;1252;73840;-69
2023/01/28 10:42:51;;;;;;;18.30;7.70;;;;;;;0.62;65.31;100857.91;109562;1251;67924;-70
2023/01/28 10:46:09;;;;;;;20.60;8.80;;;;;;;0.61;64.76;100852.54;109524;1253;72771;-69
2023/01/28 10:49:15;;;;;;;19.00;7.90;;;;;;;0.51;64.81;100848.39;109520;1252;58061;-69
2023/01/28 10:52:14;;;;;;;20.90;8.90;;;;;;;0.48;65.18;100849.84;109543;1251;58829;-68
2023/01/28 10:55:05;;;;;;;18.90;7.70;;;;;;;0.52;65.38;100839.63;109560;1252;73497;-70
2023/01/28 10:57:53;;;;;;;20.60;8.70;;;;;;;0.60;65.66;100836.82;108000;1252;1002622;-70
2023/01/28 11:00:42;;;;;;;20.00;8.00;;;;;;;0.68;65.19;100838.03;109508;1251;71563;-71
2023/01/28 11:03:31;;;;;;;20.10;8.10;;;;;;;0.67;64.65;100838.05;109554;1253;58226;-71
2023/01/28 11:06:32;;;;;;;23.80;9.30;;;;;;;0.73;65.08;100839.48;109541;1252;59968;-69
2023/01/28 11:09:30;;;;;;;19.40;8.80;;;;;;;0.75;64.45;100837.16;109552;1252;74578;-69
2023/01/28 11:12:26;;;;;;;21.80;7.80;;;;;;;0.66;64.61;100829.50;109409;1251;67993;-70
2023/01/28 11:15:17;;;;;;;22.20;7.60;;;;;;;0.69;64.62;100835.21;109526;1252;72718;-68
2023/01/28 11:18:35;;;;;;;16.50;7.30;;;;;;;0.73;64.93;100840.88;109479;1252;58130;-70
2023/01/28 11:21:26;;;;;;;18.10;7.50;;;;;;;0.79;65.21;100835.33;109487;1252;61043;-70
2023/01/28 11:24:25;;;;;;;16.40;7.20;;;;;;;0.86;65.18;100836.20;109524;1255;74529;-69
2023/01/28 11:27:17;;;;;;;15.10;6.60;;;;;;;0.89;64.60;100833.66;108803;1251;1002154;-69
2023/01/28 11:30:21;;;;;;;15.80;7.10;;;;;;;0.93;64.58;100826.75;109530;1252;72737;-69
2023/01/28 11:33:25;;;;;;;16.70;7.10;;;;;;;0.91;64.62;100816.48;108755;1252;1002942;-69
2023/01/28 11:36:19;;;;;;;15.90;6.90;;;;;;;0.94;64.81;100808.75;109567;1252;58629;-70
2023/01/28 11:39:35;;;;;;;16.00;6.00;;;;;;;0.95;64.64;100806.77;109579;1252;74823;-68
2023/01/28 11:42:23;;;;;;;15.90;6.70;;;;;;;0.86;63.83;100814.88;108948;1259;66760;-69
2023/01/28 11:45:21;;;;;;;16.50;6.80;;;;;;;0.80;64.06;100817.66;109054;1259;72402;-67
2023/01/28 11:48:57;;;;;;;13.40;6.30;;;;;;;0.78;64.58;100810.55;108998;1259;58696;-68
2023/01/28 11:51:55;;;;;;;15.10;6.60;;;;;;;0.80;64.66;100815.55;109069;1258;59979;-70
2023/01/28 11:54:53;;;;;;;15.20;6.70;;;;;;;0.84;65.00;100819.63;109032;1258;73095;-69
2023/01/28 11:58:27;;;;;;;15.40;6.60;;;;;;;0.89;65.07;100815.50;109019;1259;68050;-69
2023/01/28 12:01:48;;;;;;;15.70;7.20;;;;;;;0.92;64.97;100794.63;109048;1258;72913;-68
2023/01/28 12:04:54;;;;;;;15.80;7.30;;;;;;;0.97;65.09;100789.10;109001;1258;58219;-70
2023/01/28 12:08:23;;;;;;;14.30;6.70;;;;;;;1.03;65.12;100797.51;109020;1258;60374;-68
2023/01/28 12:12:10;;;;;;;16.20;7.40;;;;;;;1.13;65.37;100789.88;108169;1259;1002519;-70
2023/01/28 12:14:42;;;;;;;15.00;6.80;;;;;;;1.24;64.84;100781.19;108983;1258;67944;-69
2023/01/28 12:17:42;;;;;;;14.40;6.10;;;;;;;1.32;64.10;100775.38;109002;1259;72729;-72
2023/01/28 12:21:13;;;;;;;12.50;5.20;;;;;;;1.43;63.28;100772.81;109479;1252;58150;-70
2023/01/28 12:24:26;;;;;;;15.00;4.90;;;;;;;1.53;63.32;100766.73;108999;1259;60006;-72
2023/01/28 12:27:36;;;;;;;13.30;5.10;;;;;;;1.64;63.19;100763.80;109047;1258;73720;-69
2023/01/28 12:31:00;;;;;;;11.00;4.50;;;;;;;1.74;63.03;100760.90;109030;1259;68058;-70
2023/01/28 12:34:10;;;;;;;13.20;5.00;;;;;;;1.73;62.04;100757.58;108970;1259;74092;-72
2023/01/28 12:37:13;;;;;;;13.40;5.00;;;;;;;1.73;62.68;100759.88;109007;1258;58107;-68
2023/01/28 12:40:41;;;;;;;13.30;5.00;;;;;;;1.73;62.38;100758.63;108999;1258;61502;-70
2023/01/28 12:44:01;;;;;;;13.40;5.40;;;;;;;1.73;62.77;100748.84;109012;1258;73481;-73
2023/01/28 12:47:01;;;;;;;11.10;4.90;;;;;;;1.77;62.72;100743.64;109001;1259;68193;-70
2023/01/28 12:50:24;;;;;;;12.30;4.60;;;;;;;1.83;62.91;100740.85;108989;1259;73739;-72
2023/01/28 12:53:37;;;;;;;11.90;4.40;;;;;;;1.84;61.99;100736.23;108912;1259;58154;-70
2023/01/28 12:56:52;;;;;;;12.40;4.70;;;;;;;1.75;60.84;100727.24;108996;1259;60357;-70
2023/01/28 12:59:51;;;;;;;12.10;4.10;;;;;;;1.75;62.00;100722.88;109018;1259;72816;-69
2023/01/28 13:02:49;;;;;;;11.20;4.50;;;;;;;1.78;61.88;100719.64;109530;1252;67876;-69
2023/01/28 13:05:45;;;;;;;12.00;4.70;;;;;;;1.81;61.84;100717.45;109470;1252;71018;-70
2023/01/28 13:08:33;;;;;;;12.20;4.00;;;;;;;1.79;61.83;100716.10;109368;1251;58151;-70
2023/01/28 13:11:35;;;;;;;11.00;4.40;;;;;;;1.75;62.00;100714.67;109485;1251;60320;-72
2023/01/28 13:14:31;;;;;;;10.90;3.80;;;;;;;1.74;62.33;100703.15;109492;1253;73805;-70
2023/01/28 13:17:35;;;;;;;12.10;4.30;;;;;;;1.79;62.02;100699.48;109549;1252;67898;-72
2023/01/28 13:20:50;;;;;;;12.10;4.10;;;;;;;1.81;61.88;100702.05;108723;1252;1002274;-69
2023/01/28 13:23:45;;;;;;;10.20;4.20;;;;;;;1.81;61.45;100694.86;109545;1252;58143;-70
2023/01/28 13:26:53;;;;;;;11.90;4.70;;;;;;;1.83;62.33;100697.95;108743;1252;1002339;-71
2023/01/28 13:29:47;;;;;;;10.80;4.10;;;;;;;1.87;62.13;100700.46;109529;1252;74668;-72
2023/01/28 13:32:35;;;;;;;11.80;4.70;;;;;;;1.81;61.27;100695.39;109494;1252;66269;-70
2023/01/28 13:35:39;;;;;;;10.90;4.10;;;;;;;1.71;61.02;100689.56;109496;1251;73406;-71
2023/01/28 13:38:28;;;;;;;10.50;3.90;;;;;;;1.66;61.80;100691.31;109483;1252;58102;-71
2023/01/28 13:41:17;;;;;;;10.00;3.90;;;;;;;1.66;61.82;100696.54;109504;1252;59938;-70
2023/01/28 13:44:17;;;;;;;10.90;4.30;;;;;;;1.65;61.99;100697.30;109583;1251;73966;-73
2023/01/28 13:47:07;;;;;;;11.80;4.30;;;;;;;1.62;61.97;100695.65;109501;1252;68643;-71